ROT24B EDDH-LRTR
Flight info
| Callsign | ROT24B |
|---|---|
| Flight time | 1h 15m |
| Altitude | 33000 |
| Route | AMLUH2G AMLUH L619 BUMIL M748 HDO DCT MAKAL DCT KOPAT DCT DEMOP DCT TEGRI |
| Aircraft | B738/M-SDE2E3FGHIRWXY/LB1 |
Departure
| Time | 2026-04-22 20:11 |
|---|---|
| Airport | Hamburg Helmut Schmidt Airport (EDDH) |
Arrival
| Time | 2026-04-22 21:26 |
|---|---|
| Airport | Timișoara Traian Vuia International Airport (LRTR) |
| Time | Latitude | Longitude | Altitude | Speed | Heading |
|---|---|---|---|---|---|
| 2026-04-22 19:35 | 53.62803 | 10.00231 | 50 ft | 0 kts | 63° |
| 2026-04-22 20:03 | 53.62803 | 10.00230 | 51 ft | 0 kts | 63° |
| 2026-04-22 20:04 | 53.62801 | 10.00225 | 50 ft | 1 kts | 63° |
| 2026-04-22 20:04 | 53.62795 | 10.00206 | 47 ft | 3 kts | 61° |
| 2026-04-22 20:04 | 53.62783 | 10.00183 | 47 ft | 3 kts | 27° |
| 2026-04-22 20:04 | 53.62766 | 10.00174 | 48 ft | 3 kts | 1° |
| 2026-04-22 20:05 | 53.62748 | 10.00177 | 48 ft | 3 kts | 345° |
| 2026-04-22 20:05 | 53.62730 | 10.00187 | 47 ft | 3 kts | 336° |
| 2026-04-22 20:05 | 53.62719 | 10.00196 | 48 ft | 0 kts | 332° |
| 2026-04-22 20:08 | 53.62729 | 10.00187 | 50 ft | 4 kts | 332° |
| 2026-04-22 20:09 | 53.62752 | 10.00165 | 50 ft | 4 kts | 330° |
| 2026-04-22 20:09 | 53.62780 | 10.00140 | 50 ft | 6 kts | 333° |
| 2026-04-22 20:09 | 53.62828 | 10.00099 | 50 ft | 10 kts | 333° |
| 2026-04-22 20:09 | 53.62857 | 10.00010 | 51 ft | 10 kts | 249° |
| 2026-04-22 20:10 | 53.62828 | 9.99908 | 52 ft | 10 kts | 243° |
| 2026-04-22 20:10 | 53.62812 | 9.99806 | 52 ft | 9 kts | 294° |
| 2026-04-22 20:10 | 53.62863 | 9.99743 | 52 ft | 9 kts | 333° |
| 2026-04-22 20:10 | 53.63111 | 9.99528 | 51 ft | 82 kts | 332° |
| 2026-04-22 20:11 | 53.63857 | 9.98868 | 52 ft | 157 kts | 330° |
| 2026-04-22 20:11 | 53.64912 | 9.97930 | 712 ft | 177 kts | 330° |
| 2026-04-22 20:11 | 53.66053 | 9.96927 | 1634 ft | 192 kts | 332° |
| 2026-04-22 20:11 | 53.67282 | 9.95906 | 2464 ft | 200 kts | 333° |
| 2026-04-22 20:12 | 53.68546 | 9.94903 | 3249 ft | 202 kts | 341° |
| 2026-04-22 20:12 | 53.69946 | 9.94646 | 3859 ft | 205 kts | 360° |
| 2026-04-22 20:12 | 53.70897 | 9.94665 | 4258 ft | 207 kts | 359° |
| 2026-04-22 20:12 | 53.72765 | 9.95404 | 4942 ft | 214 kts | 32° |
| 2026-04-22 20:13 | 53.73723 | 9.97350 | 4973 ft | 222 kts | 64° |
| 2026-04-22 20:13 | 53.74096 | 9.99884 | 5295 ft | 223 kts | 77° |
| 2026-04-22 20:13 | 53.74256 | 10.02524 | 5838 ft | 231 kts | 91° |
| 2026-04-22 20:13 | 53.73775 | 10.05183 | 6246 ft | 248 kts | 113° |
| 2026-04-22 20:14 | 53.72929 | 10.07805 | 6684 ft | 259 kts | 117° |
| 2026-04-22 20:14 | 53.71998 | 10.10432 | 7236 ft | 262 kts | 118° |
| 2026-04-22 20:14 | 53.71073 | 10.13083 | 7840 ft | 263 kts | 117° |
| 2026-04-22 20:14 | 53.70158 | 10.15760 | 8444 ft | 264 kts | 116° |
| 2026-04-22 20:15 | 53.69242 | 10.18451 | 9031 ft | 266 kts | 120° |
| 2026-04-22 20:15 | 53.67904 | 10.20644 | 9562 ft | 275 kts | 149° |
| 2026-04-22 20:15 | 53.66105 | 10.21780 | 10169 ft | 278 kts | 162° |
| 2026-04-22 20:15 | 53.64259 | 10.22782 | 10662 ft | 279 kts | 148° |
| 2026-04-22 20:16 | 53.62786 | 10.24843 | 11184 ft | 275 kts | 131° |
| 2026-04-22 20:16 | 53.61463 | 10.27175 | 11734 ft | 276 kts | 130° |
| 2026-04-22 20:16 | 53.60138 | 10.29530 | 12262 ft | 278 kts | 130° |
| 2026-04-22 20:16 | 53.58801 | 10.31885 | 12801 ft | 279 kts | 130° |
| 2026-04-22 20:17 | 53.57442 | 10.34252 | 13238 ft | 288 kts | 131° |
| 2026-04-22 20:17 | 53.55995 | 10.36758 | 13399 ft | 309 kts | 131° |
| 2026-04-22 20:17 | 53.54440 | 10.39427 | 13583 ft | 329 kts | 131° |
| 2026-04-22 20:17 | 53.52783 | 10.42253 | 13752 ft | 349 kts | 132° |
| 2026-04-22 20:18 | 53.51028 | 10.45230 | 13907 ft | 368 kts | 132° |
| 2026-04-22 20:18 | 53.49179 | 10.48354 | 14059 ft | 386 kts | 133° |
| 2026-04-22 20:18 | 53.47246 | 10.51609 | 14186 ft | 402 kts | 133° |
| 2026-04-22 20:18 | 53.45241 | 10.54977 | 14481 ft | 411 kts | 133° |
| 2026-04-22 20:19 | 53.43211 | 10.58379 | 14980 ft | 415 kts | 133° |
| 2026-04-22 20:19 | 53.41164 | 10.61806 | 15541 ft | 416 kts | 133° |
| 2026-04-22 20:19 | 53.39110 | 10.65241 | 16055 ft | 419 kts | 133° |
| 2026-04-22 20:19 | 53.37037 | 10.68709 | 16550 ft | 422 kts | 133° |
| 2026-04-22 20:20 | 53.34951 | 10.72195 | 17036 ft | 425 kts | 133° |
| 2026-04-22 20:20 | 53.32849 | 10.75697 | 17515 ft | 429 kts | 133° |
| 2026-04-22 20:20 | 53.30727 | 10.79230 | 18003 ft | 432 kts | 133° |
| 2026-04-22 20:20 | 53.28591 | 10.82777 | 18475 ft | 435 kts | 133° |
| 2026-04-22 20:21 | 53.26443 | 10.86350 | 18890 ft | 437 kts | 132° |
| 2026-04-22 20:21 | 53.24481 | 10.90232 | 19330 ft | 437 kts | 123° |
| 2026-04-22 20:21 | 53.22935 | 10.94583 | 19780 ft | 436 kts | 116° |
| 2026-04-22 20:21 | 53.21527 | 10.99080 | 20208 ft | 438 kts | 116° |
| 2026-04-22 20:22 | 53.20112 | 11.03590 | 20616 ft | 440 kts | 116° |
| 2026-04-22 20:22 | 53.15070 | 11.19237 | 22001 ft | 446 kts | 117° |
| 2026-04-22 20:22 | 53.07251 | 11.35258 | 23368 ft | 460 kts | 145° |
| 2026-04-22 20:22 | 52.96943 | 11.47916 | 24686 ft | 462 kts | 139° |
| 2026-04-22 20:23 | 52.86835 | 11.61058 | 25957 ft | 462 kts | 140° |
| 2026-04-22 20:23 | 52.76721 | 11.73804 | 27618 ft | 450 kts | 139° |
| 2026-04-22 20:23 | 52.66941 | 11.86167 | 29492 ft | 436 kts | 138° |
| 2026-04-22 20:23 | 52.57670 | 11.98656 | 30980 ft | 425 kts | 133° |
| 2026-04-22 20:24 | 52.49001 | 12.11667 | 32105 ft | 421 kts | 132° |
| 2026-04-22 20:24 | 52.40296 | 12.24306 | 33297 ft | 415 kts | 132° |
| 2026-04-22 20:24 | 52.31626 | 12.37021 | 33364 ft | 420 kts | 129° |
| 2026-04-22 20:25 | 52.14760 | 12.63581 | 33271 ft | 422 kts | 132° |
| 2026-04-22 20:25 | 51.97566 | 12.88843 | 33283 ft | 411 kts | 131° |
| 2026-04-22 20:26 | 51.85116 | 13.06960 | 33305 ft | 411 kts | 131° |
| 2026-04-22 20:26 | 51.80829 | 13.13179 | 33304 ft | 418 kts | 131° |
| 2026-04-22 20:27 | 51.76481 | 13.19459 | 33297 ft | 420 kts | 131° |
| 2026-04-22 20:27 | 51.72117 | 13.25742 | 33292 ft | 421 kts | 131° |
| 2026-04-22 20:28 | 51.67746 | 13.32023 | 33291 ft | 421 kts | 131° |
| 2026-04-22 20:28 | 51.63369 | 13.38285 | 33286 ft | 420 kts | 132° |
| 2026-04-22 20:29 | 51.58992 | 13.44517 | 33281 ft | 420 kts | 132° |
| 2026-04-22 20:29 | 51.54614 | 13.50737 | 33276 ft | 420 kts | 132° |
| 2026-04-22 20:30 | 51.50243 | 13.56939 | 33276 ft | 419 kts | 132° |
| 2026-04-22 20:30 | 51.45865 | 13.63128 | 33272 ft | 419 kts | 132° |
| 2026-04-22 20:31 | 51.42196 | 13.68301 | 33278 ft | 419 kts | 132° |
| 2026-04-22 20:31 | 51.37817 | 13.74459 | 33280 ft | 419 kts | 132° |
| 2026-04-22 20:32 | 51.33432 | 13.80615 | 33283 ft | 419 kts | 132° |
| 2026-04-22 20:32 | 51.29044 | 13.86760 | 33288 ft | 420 kts | 132° |
| 2026-04-22 20:33 | 51.24645 | 13.92895 | 33290 ft | 420 kts | 132° |
| 2026-04-22 20:33 | 51.20243 | 13.99014 | 33292 ft | 420 kts | 132° |
| 2026-04-22 20:34 | 51.14200 | 14.07396 | 33293 ft | 420 kts | 132° |
| 2026-04-22 20:34 | 50.96541 | 14.31763 | 33267 ft | 421 kts | 132° |
| 2026-04-22 20:34 | 50.89109 | 14.45539 | 33281 ft | 406 kts | 116° |
| 2026-04-22 20:35 | 50.83012 | 14.60670 | 33267 ft | 408 kts | 117° |
| 2026-04-22 20:35 | 50.70451 | 14.90598 | 33245 ft | 409 kts | 117° |
| 2026-04-22 20:36 | 50.57817 | 15.20495 | 33240 ft | 410 kts | 118° |
| 2026-04-22 20:36 | 50.45065 | 15.50319 | 33243 ft | 411 kts | 118° |
| 2026-04-22 20:37 | 50.32217 | 15.80029 | 33237 ft | 413 kts | 118° |
| 2026-04-22 20:37 | 50.19248 | 16.09684 | 33230 ft | 413 kts | 118° |
| 2026-04-22 20:38 | 50.06174 | 16.39244 | 33241 ft | 415 kts | 118° |
| 2026-04-22 20:38 | 49.92991 | 16.68719 | 33216 ft | 415 kts | 118° |
| 2026-04-22 20:39 | 49.79707 | 16.98094 | 33216 ft | 417 kts | 118° |
| 2026-04-22 20:39 | 49.66303 | 17.27406 | 33212 ft | 418 kts | 118° |
| 2026-04-22 20:40 | 49.52795 | 17.56622 | 33212 ft | 419 kts | 119° |
| 2026-04-22 20:40 | 49.39163 | 17.85791 | 33200 ft | 421 kts | 119° |
| 2026-04-22 20:41 | 49.27108 | 18.11319 | 33195 ft | 423 kts | 119° |
| 2026-04-22 20:41 | 49.23904 | 18.18795 | 33186 ft | 414 kts | 109° |
| 2026-04-22 20:42 | 49.21632 | 18.26847 | 33203 ft | 412 kts | 107° |
| 2026-04-22 20:42 | 49.19369 | 18.34907 | 33183 ft | 414 kts | 108° |
| 2026-04-22 20:43 | 49.17043 | 18.42970 | 33184 ft | 417 kts | 111° |
| 2026-04-22 20:43 | 49.15451 | 18.46719 | 33194 ft | 426 kts | 122° |
| 2026-04-22 20:43 | 49.13416 | 18.50076 | 33192 ft | 434 kts | 130° |
| 2026-04-22 20:44 | 49.08430 | 18.55539 | 33192 ft | 446 kts | 140° |
| 2026-04-22 20:44 | 49.03154 | 18.60529 | 33186 ft | 446 kts | 140° |
| 2026-04-22 20:45 | 48.97901 | 18.65572 | 33188 ft | 447 kts | 140° |
| 2026-04-22 20:45 | 48.92644 | 18.70629 | 33189 ft | 447 kts | 140° |
| 2026-04-22 20:46 | 48.84752 | 18.78181 | 33196 ft | 447 kts | 140° |
| 2026-04-22 20:46 | 48.79483 | 18.83199 | 33189 ft | 447 kts | 140° |
| 2026-04-22 20:47 | 48.74210 | 18.88206 | 33190 ft | 447 kts | 140° |
| 2026-04-22 20:47 | 48.68936 | 18.93203 | 33174 ft | 447 kts | 140° |
| 2026-04-22 20:48 | 48.63676 | 18.98172 | 33189 ft | 445 kts | 141° |
| 2026-04-22 20:48 | 48.58419 | 19.03129 | 33192 ft | 446 kts | 141° |
| 2026-04-22 20:49 | 48.53154 | 19.08081 | 33175 ft | 447 kts | 141° |
| 2026-04-22 20:49 | 48.47874 | 19.13035 | 33174 ft | 447 kts | 141° |
| 2026-04-22 20:50 | 48.42590 | 19.17979 | 33172 ft | 448 kts | 141° |
| 2026-04-22 20:50 | 48.37292 | 19.22925 | 33175 ft | 449 kts | 141° |
| 2026-04-22 20:51 | 48.31979 | 19.27872 | 33168 ft | 450 kts | 141° |
| 2026-04-22 20:51 | 48.26650 | 19.32822 | 33159 ft | 451 kts | 141° |
| 2026-04-22 20:52 | 48.21318 | 19.37761 | 33164 ft | 451 kts | 141° |
| 2026-04-22 20:52 | 48.15975 | 19.42698 | 33161 ft | 451 kts | 141° |
| 2026-04-22 20:53 | 48.10626 | 19.47629 | 33156 ft | 451 kts | 141° |
| 2026-04-22 20:53 | 48.05279 | 19.52546 | 33151 ft | 451 kts | 141° |
| 2026-04-22 20:54 | 47.99929 | 19.57454 | 33147 ft | 451 kts | 142° |
| 2026-04-22 20:54 | 47.94581 | 19.62347 | 33150 ft | 451 kts | 142° |
| 2026-04-22 20:55 | 47.89229 | 19.67233 | 33157 ft | 451 kts | 142° |
| 2026-04-22 20:55 | 47.83873 | 19.72110 | 33136 ft | 451 kts | 142° |
| 2026-04-22 20:56 | 47.78513 | 19.76979 | 33142 ft | 451 kts | 142° |
| 2026-04-22 20:56 | 47.73155 | 19.81834 | 33138 ft | 451 kts | 142° |
| 2026-04-22 20:57 | 47.67665 | 19.86797 | 33141 ft | 451 kts | 142° |
| 2026-04-22 20:57 | 47.46362 | 20.05940 | 33141 ft | 452 kts | 142° |
| 2026-04-22 20:58 | 47.24788 | 20.25137 | 33138 ft | 454 kts | 143° |
| 2026-04-22 20:58 | 47.03082 | 20.44267 | 33138 ft | 456 kts | 143° |
| 2026-04-22 20:59 | 46.81751 | 20.62875 | 33041 ft | 438 kts | 144° |
| 2026-04-22 20:59 | 46.79178 | 20.65101 | 33051 ft | 422 kts | 144° |
| 2026-04-22 20:59 | 46.76692 | 20.67250 | 33074 ft | 408 kts | 144° |
| 2026-04-22 21:00 | 46.74295 | 20.69323 | 33098 ft | 394 kts | 144° |
| 2026-04-22 21:00 | 46.71965 | 20.71340 | 32917 ft | 386 kts | 143° |
| 2026-04-22 21:00 | 46.69674 | 20.73327 | 32603 ft | 381 kts | 143° |
| 2026-04-22 21:00 | 46.67405 | 20.75293 | 32286 ft | 378 kts | 143° |
| 2026-04-22 21:01 | 46.65158 | 20.77237 | 31901 ft | 374 kts | 143° |
| 2026-04-22 21:01 | 46.62897 | 20.79195 | 30916 ft | 383 kts | 143° |
| 2026-04-22 21:01 | 46.60568 | 20.81214 | 29651 ft | 396 kts | 143° |
| 2026-04-22 21:01 | 46.58158 | 20.83301 | 28073 ft | 411 kts | 143° |
| 2026-04-22 21:02 | 46.55657 | 20.85459 | 26532 ft | 424 kts | 144° |
| 2026-04-22 21:02 | 46.53086 | 20.87667 | 25102 ft | 434 kts | 145° |
| 2026-04-22 21:02 | 46.50462 | 20.89913 | 23759 ft | 440 kts | 145° |
| 2026-04-22 21:02 | 46.47812 | 20.92177 | 22265 ft | 444 kts | 146° |
| 2026-04-22 21:03 | 46.45154 | 20.94444 | 21030 ft | 442 kts | 146° |
| 2026-04-22 21:03 | 46.42531 | 20.96679 | 20594 ft | 428 kts | 146° |
| 2026-04-22 21:03 | 46.40004 | 20.98828 | 20381 ft | 415 kts | 146° |
| 2026-04-22 21:03 | 46.37557 | 21.00912 | 20205 ft | 401 kts | 146° |
| 2026-04-22 21:04 | 46.35187 | 21.02932 | 20029 ft | 389 kts | 146° |
| 2026-04-22 21:04 | 46.32888 | 21.04892 | 19868 ft | 378 kts | 146° |
| 2026-04-22 21:04 | 46.30654 | 21.06795 | 19714 ft | 368 kts | 146° |
| 2026-04-22 21:04 | 46.28480 | 21.08642 | 19565 ft | 358 kts | 146° |
| 2026-04-22 21:05 | 46.26354 | 21.10427 | 19418 ft | 349 kts | 149° |
| 2026-04-22 21:05 | 46.24138 | 21.11766 | 19281 ft | 343 kts | 158° |
| 2026-04-22 21:05 | 46.21893 | 21.12800 | 19147 ft | 334 kts | 160° |
| 2026-04-22 21:05 | 46.19701 | 21.13795 | 19008 ft | 326 kts | 159° |
| 2026-04-22 21:06 | 46.17506 | 21.14493 | 18777 ft | 324 kts | 175° |
| 2026-04-22 21:06 | 46.15256 | 21.14515 | 18514 ft | 322 kts | 179° |
| 2026-04-22 21:06 | 46.13017 | 21.14482 | 18164 ft | 321 kts | 179° |
| 2026-04-22 21:06 | 46.10790 | 21.14459 | 17835 ft | 319 kts | 179° |
| 2026-04-22 21:07 | 46.08575 | 21.14453 | 17523 ft | 317 kts | 179° |
| 2026-04-22 21:07 | 46.06381 | 21.14460 | 17230 ft | 314 kts | 178° |
| 2026-04-22 21:07 | 46.04202 | 21.14475 | 16922 ft | 312 kts | 178° |
| 2026-04-22 21:07 | 46.02040 | 21.14492 | 16628 ft | 310 kts | 179° |
| 2026-04-22 21:08 | 45.99894 | 21.14513 | 16334 ft | 307 kts | 177° |
| 2026-04-22 21:08 | 45.97837 | 21.15160 | 16031 ft | 301 kts | 151° |
| 2026-04-22 21:08 | 45.96206 | 21.16937 | 15760 ft | 292 kts | 128° |
| 2026-04-22 21:08 | 45.95165 | 21.19383 | 15468 ft | 285 kts | 109° |
| 2026-04-22 21:09 | 45.94471 | 21.22031 | 15191 ft | 283 kts | 107° |
| 2026-04-22 21:09 | 45.93822 | 21.24689 | 14897 ft | 281 kts | 106° |
| 2026-04-22 21:09 | 45.93180 | 21.27338 | 14610 ft | 280 kts | 106° |
| 2026-04-22 21:09 | 45.92746 | 21.29118 | 14420 ft | 279 kts | 106° |
| 2026-04-22 21:10 | 45.92100 | 21.31745 | 14138 ft | 278 kts | 107° |
| 2026-04-22 21:10 | 45.91453 | 21.34358 | 13848 ft | 277 kts | 107° |
| 2026-04-22 21:10 | 45.90806 | 21.36955 | 13538 ft | 276 kts | 107° |
| 2026-04-22 21:10 | 45.90158 | 21.39543 | 13244 ft | 274 kts | 107° |
| 2026-04-22 21:11 | 45.89514 | 21.42111 | 12969 ft | 272 kts | 107° |
| 2026-04-22 21:11 | 45.88873 | 21.44662 | 12692 ft | 271 kts | 107° |
| 2026-04-22 21:11 | 45.88236 | 21.47193 | 12409 ft | 269 kts | 107° |
| 2026-04-22 21:11 | 45.87602 | 21.49709 | 12143 ft | 267 kts | 106° |
| 2026-04-22 21:12 | 45.86971 | 21.52207 | 11874 ft | 265 kts | 106° |
| 2026-04-22 21:12 | 45.86344 | 21.54687 | 11609 ft | 263 kts | 106° |
| 2026-04-22 21:12 | 45.85720 | 21.57149 | 11342 ft | 262 kts | 106° |
| 2026-04-22 21:12 | 45.85102 | 21.59589 | 11090 ft | 260 kts | 106° |
| 2026-04-22 21:13 | 45.84486 | 21.62019 | 10830 ft | 258 kts | 106° |
| 2026-04-22 21:13 | 45.83874 | 21.64429 | 10573 ft | 257 kts | 106° |
| 2026-04-22 21:13 | 45.83263 | 21.66826 | 10319 ft | 255 kts | 106° |
| 2026-04-22 21:13 | 45.82656 | 21.69208 | 10094 ft | 252 kts | 106° |
| 2026-04-22 21:14 | 45.82063 | 21.71537 | 9803 ft | 246 kts | 106° |
| 2026-04-22 21:14 | 45.81481 | 21.73821 | 9507 ft | 241 kts | 106° |
| 2026-04-22 21:14 | 45.80912 | 21.76046 | 9240 ft | 235 kts | 106° |
| 2026-04-22 21:14 | 45.80354 | 21.78229 | 8913 ft | 232 kts | 106° |
| 2026-04-22 21:15 | 45.79806 | 21.80367 | 8653 ft | 226 kts | 106° |
| 2026-04-22 21:15 | 45.79272 | 21.82451 | 8417 ft | 220 kts | 106° |
| 2026-04-22 21:15 | 45.78751 | 21.84487 | 8252 ft | 216 kts | 106° |
| 2026-04-22 21:15 | 45.78240 | 21.86478 | 8168 ft | 212 kts | 106° |
| 2026-04-22 21:16 | 45.77723 | 21.88497 | 7980 ft | 219 kts | 106° |
| 2026-04-22 21:16 | 45.77044 | 21.90474 | 7726 ft | 227 kts | 129° |
| 2026-04-22 21:16 | 45.75695 | 21.91646 | 7512 ft | 233 kts | 168° |
| 2026-04-22 21:16 | 45.74098 | 21.91427 | 7293 ft | 233 kts | 200° |
| 2026-04-22 21:17 | 45.72583 | 21.90601 | 7080 ft | 235 kts | 201° |
| 2026-04-22 21:17 | 45.71067 | 21.89774 | 6865 ft | 230 kts | 201° |
| 2026-04-22 21:17 | 45.69580 | 21.88962 | 6581 ft | 228 kts | 207° |
| 2026-04-22 21:17 | 45.68393 | 21.87554 | 6279 ft | 219 kts | 243° |
| 2026-04-22 21:18 | 45.68014 | 21.85543 | 6025 ft | 206 kts | 278° |
| 2026-04-22 21:18 | 45.68283 | 21.83579 | 5940 ft | 201 kts | 291° |
| 2026-04-22 21:18 | 45.68759 | 21.81666 | 5828 ft | 208 kts | 295° |
| 2026-04-22 21:18 | 45.69293 | 21.79693 | 5515 ft | 215 kts | 295° |
| 2026-04-22 21:19 | 45.69850 | 21.77719 | 5217 ft | 212 kts | 297° |
| 2026-04-22 21:19 | 45.70446 | 21.75805 | 4923 ft | 209 kts | 296° |
| 2026-04-22 21:19 | 45.70998 | 21.73939 | 4812 ft | 199 kts | 295° |
| 2026-04-22 21:19 | 45.71490 | 21.72075 | 4696 ft | 202 kts | 294° |
| 2026-04-22 21:20 | 45.71950 | 21.70172 | 4501 ft | 203 kts | 291° |
| 2026-04-22 21:20 | 45.72372 | 21.68241 | 4312 ft | 202 kts | 290° |
| 2026-04-22 21:20 | 45.72787 | 21.66327 | 4002 ft | 201 kts | 293° |
| 2026-04-22 21:20 | 45.73283 | 21.64436 | 3590 ft | 204 kts | 293° |
| 2026-04-22 21:21 | 45.73786 | 21.62539 | 3283 ft | 201 kts | 293° |
| 2026-04-22 21:21 | 45.74255 | 21.60740 | 3238 ft | 186 kts | 294° |
| 2026-04-22 21:21 | 45.74692 | 21.59039 | 3107 ft | 179 kts | 293° |
| 2026-04-22 21:21 | 45.75118 | 21.57379 | 2907 ft | 178 kts | 294° |
| 2026-04-22 21:22 | 45.75544 | 21.55716 | 2668 ft | 177 kts | 292° |
| 2026-04-22 21:22 | 45.75938 | 21.54085 | 2554 ft | 169 kts | 292° |
| 2026-04-22 21:22 | 45.76326 | 21.52495 | 2570 ft | 168 kts | 292° |
| 2026-04-22 21:22 | 45.76725 | 21.50862 | 2388 ft | 175 kts | 292° |
| 2026-04-22 21:23 | 45.77115 | 21.49265 | 2400 ft | 167 kts | 292° |
| 2026-04-22 21:23 | 45.77486 | 21.47652 | 2120 ft | 171 kts | 291° |
| 2026-04-22 21:23 | 45.77888 | 21.46070 | 1923 ft | 169 kts | 292° |
| 2026-04-22 21:23 | 45.78303 | 21.44497 | 1685 ft | 169 kts | 294° |
| 2026-04-22 21:24 | 45.78690 | 21.42921 | 1508 ft | 167 kts | 290° |
| 2026-04-22 21:24 | 45.79051 | 21.41351 | 1284 ft | 166 kts | 291° |
| 2026-04-22 21:24 | 45.79473 | 21.39806 | 1019 ft | 167 kts | 291° |
| 2026-04-22 21:24 | 45.79864 | 21.38236 | 757 ft | 166 kts | 290° |
| 2026-04-22 21:25 | 45.80246 | 21.36710 | 536 ft | 160 kts | 291° |
| 2026-04-22 21:25 | 45.80615 | 21.35242 | 365 ft | 149 kts | 285° |
| 2026-04-22 21:25 | 45.80938 | 21.33966 | 352 ft | 121 kts | 290° |
| 2026-04-22 21:25 | 45.81180 | 21.32997 | 354 ft | 86 kts | 290° |
| 2026-04-22 21:26 | 45.81342 | 21.32357 | 355 ft | 51 kts | 290° |
| 2026-04-22 21:26 | 45.81376 | 21.32163 | 351 ft | 7 kts | 222° |
| 2026-04-22 21:26 | 45.81316 | 21.32128 | 359 ft | 12 kts | 203° |
| 2026-04-22 21:26 | 45.81241 | 21.32090 | 351 ft | 11 kts | 202° |
| 2026-04-22 21:27 | 45.81169 | 21.32045 | 353 ft | 11 kts | 185° |
| 2026-04-22 21:27 | 45.81119 | 21.32117 | 356 ft | 11 kts | 113° |
| 2026-04-22 21:27 | 45.81090 | 21.32215 | 357 ft | 11 kts | 127° |
| 2026-04-22 21:27 | 45.81051 | 21.32236 | 353 ft | 0 kts | 175° |